Time;durP1;ratioP1;P1;durP2;ratioP2;P2;SDS_P1;SDS_P2;PMS_P1;PMS_P2;Temp;Humidity;BMP_temperature;BMP_pressure;BME280_temperature;BME280_humidity;BME280_pressure;Samples;Min_cycle;Max_cycle;Signal;HPM_P1;HPM_P2
2022/07/14 00:01:06;;;;;;;11.38;2.60;;;15.70;99.90;;;;;;5047880;28;20052;-79
2022/07/14 00:03:32;;;;;;;12.27;2.60;;;15.60;99.90;;;;;;5061436;28;20037;-79
2022/07/14 00:05:58;;;;;;;7.00;2.03;;;15.60;99.90;;;;;;5047593;28;20126;-79
2022/07/14 00:08:23;;;;;;;8.32;2.30;;;15.50;99.90;;;;;;5052354;28;20049;-79
2022/07/14 00:10:49;;;;;;;9.93;2.30;;;15.40;99.90;;;;;;5051411;28;20037;-79
2022/07/14 00:13:15;;;;;;;11.02;2.85;;;15.40;99.90;;;;;;5047690;28;20060;-79
2022/07/14 00:15:40;;;;;;;8.75;2.30;;;15.30;99.90;;;;;;5047897;28;20033;-79
2022/07/14 00:18:06;;;;;;;8.65;2.28;;;15.30;99.90;;;;;;5028725;28;20045;-78
2022/07/14 00:20:31;;;;;;;7.35;2.30;;;15.20;99.90;;;;;;5051012;28;20037;-80
2022/07/14 00:22:57;;;;;;;12.57;2.63;;;15.10;99.90;;;;;;5052460;28;20418;-79
2022/07/14 00:25:26;;;;;;;11.13;2.00;;;15.10;99.90;;;;;;5053851;28;20124;-79
2022/07/14 00:27:53;;;;;;;5.50;2.10;;;15.10;99.90;;;;;;5053410;28;20116;-80
2022/07/14 00:30:19;;;;;;;9.13;2.63;;;15.10;99.90;;;;;;5047828;28;20115;-80
2022/07/14 00:32:45;;;;;;;9.77;2.25;;;15.10;99.90;;;;;;5044716;28;20038;-80
2022/07/14 00:35:11;;;;;;;9.30;2.58;;;15.00;99.90;;;;;;5052418;28;20087;-79
2022/07/14 00:37:37;;;;;;;8.18;2.30;;;14.90;99.90;;;;;;5045517;28;20498;-79
2022/07/14 00:40:04;;;;;;;11.00;2.85;;;14.90;99.90;;;;;;5053021;28;20418;-79
2022/07/14 00:42:40;;;;;;;6.70;2.10;;;14.90;99.90;;;;;;5052854;28;20041;-79
2022/07/14 00:45:10;;;;;;;10.27;2.38;;;14.90;99.90;;;;;;5051154;28;20115;-79
2022/07/14 00:47:37;;;;;;;8.07;2.20;;;14.90;99.90;;;;;;5046604;28;20507;-79
2022/07/14 00:50:05;;;;;;;9.52;2.22;;;14.90;99.90;;;;;;5047224;28;20044;-79
2022/07/14 00:52:31;;;;;;;7.10;2.15;;;14.90;99.90;;;;;;5043438;28;20033;-79
2022/07/14 00:54:57;;;;;;;8.90;2.40;;;14.90;99.90;;;;;;5033859;28;20052;-79
2022/07/14 00:57:23;;;;;;;9.77;2.72;;;14.80;99.90;;;;;;5050917;28;20033;-78
2022/07/14 00:59:49;;;;;;;7.75;2.17;;;14.80;99.90;;;;;;5053045;28;20495;-79
2022/07/14 01:02:17;;;;;;;10.38;2.78;;;14.70;99.90;;;;;;5043132;28;20040;-78
2022/07/14 01:04:45;;;;;;;8.30;2.65;;;14.70;99.90;;;;;;5047053;28;20455;-78
2022/07/14 01:07:12;;;;;;;10.23;2.33;;;14.70;99.90;;;;;;5028914;28;20518;-79
2022/07/14 01:09:38;;;;;;;10.77;2.65;;;14.60;99.90;;;;;;5047175;28;20043;-79
2022/07/14 01:12:03;;;;;;;7.28;2.15;;;14.60;99.90;;;;;;5047664;28;20091;-79
2022/07/14 01:14:29;;;;;;;6.60;2.20;;;14.60;99.90;;;;;;5041661;28;20049;-79
2022/07/14 01:16:56;;;;;;;7.32;2.47;;;14.60;99.90;;;;;;5046270;28;20041;-79
2022/07/14 01:19:23;;;;;;;5.97;2.58;;;14.60;99.90;;;;;;5045737;28;20491;-78
2022/07/14 01:21:55;;;;;;;9.00;2.58;;;14.50;99.90;;;;;;5049002;28;20076;-78
2022/07/14 01:24:25;;;;;;;6.22;2.30;;;14.60;99.90;;;;;;5042363;28;20399;-78
2022/07/14 01:26:51;;;;;;;9.07;2.42;;;14.50;99.90;;;;;;5042594;28;20059;-78
2022/07/14 01:29:17;;;;;;;10.45;2.80;;;14.50;99.90;;;;;;5049581;28;20449;-78
2022/07/14 01:31:43;;;;;;;6.45;2.45;;;14.40;99.90;;;;;;5038464;28;20091;-78
2022/07/14 01:34:09;;;;;;;6.55;2.35;;;14.40;99.90;;;;;;5040600;28;20086;-79
2022/07/14 01:36:35;;;;;;;7.82;2.20;;;14.40;99.90;;;;;;5043480;28;20060;-78
2022/07/14 01:39:02;;;;;;;8.50;2.85;;;14.30;99.90;;;;;;5043635;28;20499;-78
2022/07/14 01:41:27;;;;;;;4.90;1.92;;;14.30;99.90;;;;;;5042718;28;20048;-79
2022/07/14 01:43:53;;;;;;;8.65;2.50;;;14.30;99.90;;;;;;5048526;28;20473;-79
2022/07/14 01:46:19;;;;;;;9.05;2.40;;;14.30;99.90;;;;;;5049663;28;20029;-79
2022/07/14 01:48:45;;;;;;;6.07;1.95;;;14.30;99.90;;;;;;5041606;28;20065;-79
2022/07/14 01:51:10;;;;;;;7.63;2.70;;;14.20;99.90;;;;;;5045272;28;20028;-79
2022/07/14 01:53:36;;;;;;;6.53;2.30;;;14.20;99.90;;;;;;5064325;28;20175;-78
2022/07/14 01:56:02;;;;;;;7.53;2.47;;;14.10;99.90;;;;;;5048388;28;20041;-78
2022/07/14 01:58:27;;;;;;;6.95;2.47;;;14.10;99.90;;;;;;5040641;28;20041;-79
2022/07/14 02:03:38;;;;;;;;;;;14.00;99.90;;;;;;5056390;28;20046;-78
2022/07/14 02:06:04;;;;;;;6.32;2.10;;;14.00;99.90;;;;;;5041838;28;19924;-78
2022/07/14 02:08:29;;;;;;;9.43;2.20;;;13.90;99.90;;;;;;5046817;28;20055;-78
2022/07/14 02:13:39;;;;;;;8.10;2.60;;;13.70;99.90;;;;;;5042461;28;21353;-78
2022/07/14 02:16:05;;;;;;;7.55;2.05;;;13.70;99.90;;;;;;5042802;28;20041;-78
2022/07/14 02:18:31;;;;;;;7.93;2.50;;;13.60;99.90;;;;;;5045256;28;20068;-78
2022/07/14 02:20:57;;;;;;;8.18;2.30;;;13.60;99.90;;;;;;5028072;28;20047;-78
2022/07/14 02:23:23;;;;;;;5.10;2.20;;;13.60;99.90;;;;;;5043041;28;20466;-78
2022/07/14 02:25:49;;;;;;;4.68;1.80;;;13.70;99.90;;;;;;5046172;28;20080;-78
2022/07/14 02:28:15;;;;;;;3.70;1.80;;;13.60;99.90;;;;;;5047864;28;20033;-78
2022/07/14 02:30:41;;;;;;;7.28;2.25;;;13.60;99.90;;;;;;5045258;28;20033;-78
2022/07/14 02:33:07;;;;;;;5.63;1.98;;;13.50;99.90;;;;;;5048242;28;20063;-78
2022/07/14 02:35:33;;;;;;;6.93;2.05;;;13.50;99.90;;;;;;5042113;28;20034;-78
2022/07/14 02:37:59;;;;;;;7.10;2.22;;;13.40;99.90;;;;;;5048597;28;20051;-79
2022/07/14 02:40:24;;;;;;;5.65;2.10;;;13.40;99.90;;;;;;5047580;28;20124;-79
2022/07/14 02:42:50;;;;;;;6.05;2.13;;;13.40;99.90;;;;;;5051826;28;20036;-79
2022/07/14 02:45:16;;;;;;;8.20;2.72;;;13.40;99.90;;;;;;5047632;28;20040;-79
2022/07/14 02:47:42;;;;;;;8.52;2.30;;;13.40;99.90;;;;;;5050349;28;20112;-79
2022/07/14 02:50:09;;;;;;;7.43;2.33;;;13.40;99.90;;;;;;5049505;28;20093;-79
2022/07/14 02:52:35;;;;;;;6.07;2.20;;;13.40;99.90;;;;;;5046495;28;20078;-79
2022/07/14 02:55:01;;;;;;;7.05;2.10;;;13.40;99.90;;;;;;5046147;28;20049;-79
2022/07/14 02:57:26;;;;;;;8.80;2.47;;;13.40;99.90;;;;;;5043874;28;20030;-79
2022/07/14 02:59:52;;;;;;;9.55;2.60;;;13.40;99.90;;;;;;5047724;28;20030;-79
2022/07/14 03:02:18;;;;;;;7.32;2.10;;;13.40;99.90;;;;;;5041364;28;20030;-79
2022/07/14 03:04:43;;;;;;;5.28;2.28;;;13.30;99.90;;;;;;5048917;28;20037;-79
2022/07/14 03:07:09;;;;;;;7.63;2.40;;;13.30;99.90;;;;;;5046288;28;20048;-79
2022/07/14 03:09:35;;;;;;;6.93;2.28;;;13.30;99.90;;;;;;5043779;28;20048;-79
2022/07/14 03:12:00;;;;;;;8.80;2.35;;;13.30;99.90;;;;;;5048657;28;20037;-78
2022/07/14 03:14:26;;;;;;;6.55;2.45;;;13.30;99.90;;;;;;5047656;28;20044;-78
2022/07/14 03:16:51;;;;;;;7.53;2.30;;;13.20;99.90;;;;;;5045930;28;20086;-78
2022/07/14 03:19:17;;;;;;;6.05;2.25;;;13.20;99.90;;;;;;5047814;28;20512;-78
2022/07/14 03:21:42;;;;;;;8.50;2.38;;;13.20;99.90;;;;;;5048911;28;20037;-78
2022/07/14 03:24:08;;;;;;;5.25;2.22;;;13.10;99.90;;;;;;5050433;28;20045;-79
2022/07/14 03:26:35;;;;;;;7.38;2.17;;;13.10;99.90;;;;;;5027419;28;20033;-79
2022/07/14 03:29:01;;;;;;;7.55;2.75;;;13.10;99.90;;;;;;5031395;28;20044;-79
2022/07/14 03:31:26;;;;;;;6.50;2.22;;;13.10;99.90;;;;;;5048415;28;20029;-79
2022/07/14 03:33:52;;;;;;;8.90;2.70;;;13.10;99.90;;;;;;5043154;28;20045;-78
2022/07/14 03:36:20;;;;;;;7.18;2.20;;;13.10;99.90;;;;;;5051048;28;20037;-79
2022/07/14 03:38:46;;;;;;;4.75;2.00;;;13.10;99.90;;;;;;5046672;28;20406;-79
2022/07/14 03:41:12;;;;;;;7.03;2.30;;;13.00;99.90;;;;;;5051209;28;20041;-78
2022/07/14 03:43:38;;;;;;;5.47;2.22;;;12.90;99.90;;;;;;5048886;28;20461;-79
2022/07/14 03:46:04;;;;;;;7.43;2.40;;;12.90;99.90;;;;;;5048989;28;20056;-78
2022/07/14 03:48:30;;;;;;;9.57;2.40;;;12.90;99.90;;;;;;5047989;28;20041;-78
2022/07/14 03:50:56;;;;;;;5.90;2.10;;;12.80;99.90;;;;;;5050401;28;20044;-78
2022/07/14 03:53:21;;;;;;;5.18;2.10;;;12.80;99.90;;;;;;5032193;28;20453;-78
2022/07/14 03:55:47;;;;;;;8.05;2.15;;;12.80;99.90;;;;;;5049351;28;20034;-79
2022/07/14 03:58:12;;;;;;;5.88;2.08;;;12.80;99.90;;;;;;5043006;28;20037;-78
2022/07/14 04:00:39;;;;;;;8.32;2.28;;;12.90;99.90;;;;;;5050640;28;20087;-78
2022/07/14 04:03:05;;;;;;;5.68;2.20;;;12.90;99.90;;;;;;5031218;28;20076;-79
2022/07/14 04:05:31;;;;;;;6.10;2.30;;;13.00;99.90;;;;;;5033611;28;20037;-79
2022/07/14 04:07:56;;;;;;;5.53;2.30;;;12.90;99.90;;;;;;5049949;28;20037;-78
2022/07/14 04:10:22;;;;;;;5.22;2.30;;;13.00;99.90;;;;;;5050067;28;20033;-78
2022/07/14 04:12:47;;;;;;;9.43;2.03;;;13.10;99.90;;;;;;5051008;28;20517;-78
2022/07/14 04:15:13;;;;;;;8.27;2.42;;;13.20;99.90;;;;;;5031190;28;20407;-79
2022/07/14 04:17:39;;;;;;;6.20;2.17;;;13.20;99.90;;;;;;5050306;28;20072;-78
2022/07/14 04:20:05;;;;;;;5.10;2.10;;;13.30;99.90;;;;;;5050389;28;20041;-78
2022/07/14 04:22:30;;;;;;;5.68;2.30;;;13.30;99.90;;;;;;5052366;28;20055;-78
2022/07/14 04:24:56;;;;;;;5.13;2.17;;;13.30;99.90;;;;;;5040551;28;20040;-78
2022/07/14 04:27:21;;;;;;;7.40;2.20;;;13.40;99.90;;;;;;5048455;28;20061;-79
2022/07/14 04:29:47;;;;;;;5.65;2.40;;;13.40;99.90;;;;;;5046038;28;20048;-78
2022/07/14 04:32:13;;;;;;;6.03;2.25;;;13.50;99.90;;;;;;5047421;28;20040;-78
2022/07/14 04:34:39;;;;;;;5.10;2.15;;;13.50;99.90;;;;;;5048842;28;20120;-79
2022/07/14 04:37:05;;;;;;;8.05;2.40;;;13.50;99.90;;;;;;5047337;28;20085;-78
2022/07/14 04:39:31;;;;;;;7.13;2.30;;;13.60;99.90;;;;;;5049734;28;20060;-78
2022/07/14 04:41:56;;;;;;;5.03;2.20;;;13.60;99.90;;;;;;5043794;28;20613;-79
2022/07/14 04:44:22;;;;;;;7.00;2.47;;;13.60;99.90;;;;;;5047193;28;20047;-78
2022/07/14 04:46:48;;;;;;;5.72;2.25;;;13.60;99.90;;;;;;5041681;28;20038;-78
2022/07/14 04:52:03;;;;;;;;;;;13.70;99.90;;;;;;5044254;28;20037;-79
2022/07/14 04:54:34;;;;;;;8.63;2.63;;;13.70;99.90;;;;;;5042617;28;19925;-79
2022/07/14 04:57:01;;;;;;;7.07;2.60;;;13.70;99.90;;;;;;5048631;28;20045;-79
2022/07/14 04:59:27;;;;;;;6.97;2.72;;;13.70;99.90;;;;;;5051364;28;20667;-79
2022/07/14 05:01:53;;;;;;;6.55;2.97;;;13.80;99.90;;;;;;5047536;28;20077;-79
2022/07/14 05:04:20;;;;;;;6.97;2.88;;;13.90;99.90;;;;;;5049248;28;20084;-79
2022/07/14 05:06:46;;;;;;;7.05;3.00;;;13.90;99.90;;;;;;5051200;28;20040;-79
2022/07/14 05:09:15;;;;;;;4.75;2.88;;;14.00;99.90;;;;;;5048476;28;20590;-79
2022/07/14 05:11:41;;;;;;;6.68;2.70;;;14.10;99.90;;;;;;5033991;28;20029;-79
2022/07/14 05:14:07;;;;;;;8.00;3.20;;;14.10;99.90;;;;;;5031441;28;20040;-78
2022/07/14 05:16:32;;;;;;;7.50;2.70;;;14.10;99.90;;;;;;5049463;28;20507;-79
2022/07/14 05:18:58;;;;;;;5.95;3.17;;;14.10;99.90;;;;;;5042089;28;20044;-79
2022/07/14 05:21:24;;;;;;;6.55;2.95;;;14.20;99.90;;;;;;5046998;28;20049;-79
2022/07/14 05:23:50;;;;;;;10.23;3.08;;;14.20;99.90;;;;;;5043515;28;20041;-78
2022/07/14 05:26:17;;;;;;;7.95;3.05;;;14.30;99.90;;;;;;5031444;28;20044;-79
2022/07/14 05:28:43;;;;;;;10.32;2.72;;;14.40;99.90;;;;;;5048439;28;20048;-78
2022/07/14 05:31:08;;;;;;;8.32;2.50;;;14.50;99.90;;;;;;5046299;28;20029;-78
2022/07/14 05:33:35;;;;;;;6.53;2.40;;;14.60;99.90;;;;;;5044281;28;20045;-78
2022/07/14 05:36:01;;;;;;;8.00;2.40;;;14.80;99.90;;;;;;5048179;28;20043;-78
2022/07/14 05:38:27;;;;;;;5.25;2.10;;;15.00;99.90;;;;;;5048701;28;20090;-79
2022/07/14 05:40:53;;;;;;;11.40;2.22;;;15.20;99.90;;;;;;5046233;28;20037;-79
2022/07/14 05:43:19;;;;;;;7.35;2.17;;;15.30;99.90;;;;;;5048279;28;20052;-78
2022/07/14 05:45:46;;;;;;;6.38;2.08;;;15.40;99.90;;;;;;5037204;28;20051;-78
2022/07/14 05:48:11;;;;;;;9.82;2.08;;;15.50;99.90;;;;;;5043270;28;20041;-78
2022/07/14 05:50:37;;;;;;;5.70;1.95;;;15.60;99.90;;;;;;5047150;28;20461;-78
2022/07/14 05:53:03;;;;;;;6.20;1.88;;;15.60;99.90;;;;;;5040030;28;20130;-78
2022/07/14 05:55:28;;;;;;;11.68;1.85;;;15.70;99.90;;;;;;5044136;28;20037;-78
2022/07/14 05:57:54;;;;;;;5.07;1.55;;;15.80;99.90;;;;;;5043498;28;20048;-78
2022/07/14 06:00:20;;;;;;;6.22;1.95;;;16.00;99.90;;;;;;5049794;28;20072;-78
2022/07/14 06:02:45;;;;;;;7.53;1.83;;;16.10;99.90;;;;;;5047837;28;20037;-78
2022/07/14 06:05:12;;;;;;;8.70;1.30;;;16.20;99.90;;;;;;5046190;28;20570;-78
2022/07/14 06:07:38;;;;;;;7.65;1.33;;;16.30;99.90;;;;;;5049162;28;20078;-78
2022/07/14 06:10:05;;;;;;;8.82;1.75;;;16.40;99.90;;;;;;5046692;28;20036;-78
2022/07/14 06:12:37;;;;;;;7.72;1.50;;;16.60;99.90;;;;;;5046475;28;20029;-78
2022/07/14 06:15:05;;;;;;;7.25;1.40;;;16.70;99.90;;;;;;5044996;28;20040;-79
2022/07/14 06:17:31;;;;;;;9.35;1.40;;;16.70;99.90;;;;;;5044666;28;20080;-79
2022/07/14 06:20:00;;;;;;;5.00;1.15;;;16.80;99.90;;;;;;5046157;28;20049;-78
2022/07/14 06:22:26;;;;;;;6.40;1.20;;;16.80;99.90;;;;;;5049355;28;20060;-78
2022/07/14 06:24:52;;;;;;;5.88;1.20;;;16.90;99.90;;;;;;5027073;28;20094;-78
2022/07/14 06:27:17;;;;;;;5.63;1.15;;;17.00;99.90;;;;;;5044268;28;20033;-78
2022/07/14 06:29:43;;;;;;;4.35;1.00;;;17.10;99.90;;;;;;5045019;28;20045;-78
2022/07/14 06:32:09;;;;;;;8.40;1.83;;;17.10;99.90;;;;;;5040543;28;20067;-78
2022/07/14 06:34:34;;;;;;;7.75;1.30;;;17.10;99.90;;;;;;5031634;28;20029;-78
2022/07/14 06:37:00;;;;;;;6.32;1.10;;;17.20;99.90;;;;;;5025562;28;20033;-78
2022/07/14 06:39:25;;;;;;;5.80;1.00;;;17.30;99.90;;;;;;5045845;28;20101;-78
2022/07/14 06:41:51;;;;;;;7.68;1.00;;;17.40;99.90;;;;;;5049526;28;20419;-78
2022/07/14 06:44:17;;;;;;;6.50;1.23;;;17.60;99.90;;;;;;5045724;28;20498;-78
2022/07/14 06:46:43;;;;;;;9.95;1.30;;;17.70;99.90;;;;;;5049175;28;20497;-79
2022/07/14 06:49:08;;;;;;;5.28;1.30;;;17.70;99.90;;;;;;5044697;28;20125;-78
2022/07/14 06:51:34;;;;;;;6.78;1.27;;;17.70;99.90;;;;;;5045926;28;20534;-78
2022/07/14 06:54:00;;;;;;;4.63;1.02;;;17.60;99.90;;;;;;5046723;28;20073;-78
2022/07/14 06:56:26;;;;;;;6.95;1.42;;;17.80;99.90;;;;;;5045925;28;20041;-78
2022/07/14 06:58:51;;;;;;;3.30;1.00;;;17.90;99.90;;;;;;5045195;28;20045;-78
2022/07/14 07:01:18;;;;;;;5.25;1.27;;;18.00;99.90;;;;;;5041142;28;20506;-79
2022/07/14 07:03:43;;;;;;;5.55;0.90;;;17.90;99.90;;;;;;5039774;28;20036;-78
2022/07/14 07:08:53;;;;;;;9.90;1.20;;;18.00;99.90;;;;;;5036047;28;20065;-77
2022/07/14 07:11:19;;;;;;;5.60;1.00;;;18.20;99.90;;;;;;5036795;28;20128;-81
2022/07/14 07:13:44;;;;;;;6.90;0.95;;;18.20;99.90;;;;;;5037666;28;20033;-78
2022/07/14 07:16:10;;;;;;;4.13;0.90;;;18.10;99.90;;;;;;5032256;28;20042;-78
2022/07/14 07:18:36;;;;;;;4.95;1.00;;;18.00;99.90;;;;;;5032276;28;20048;-77
2022/07/14 07:21:03;;;;;;;5.75;0.82;;;18.10;99.90;;;;;;5033321;28;20049;-77
2022/07/14 07:23:30;;;;;;;2.22;0.75;;;18.20;99.90;;;;;;5033423;28;20043;-78
2022/07/14 07:25:56;;;;;;;3.75;0.75;;;18.40;99.90;;;;;;5032396;28;20083;-77
2022/07/14 07:28:21;;;;;;;3.10;0.80;;;18.50;99.90;;;;;;5040126;28;20037;-77
2022/07/14 07:30:47;;;;;;;4.05;1.00;;;18.50;99.90;;;;;;5038348;28;20045;-77
2022/07/14 07:33:13;;;;;;;4.55;0.95;;;18.60;99.90;;;;;;5046441;28;20128;-79
2022/07/14 07:35:39;;;;;;;5.70;1.15;;;18.60;99.90;;;;;;5028091;28;20615;-78
2022/07/14 07:38:05;;;;;;;4.72;0.80;;;18.60;99.90;;;;;;5037121;28;20049;-79
2022/07/14 07:40:30;;;;;;;4.78;0.80;;;18.50;99.90;;;;;;5043883;28;20552;-77
2022/07/14 07:42:56;;;;;;;3.17;0.80;;;18.60;99.90;;;;;;5041114;28;20115;-77
2022/07/14 07:45:22;;;;;;;6.85;0.98;;;18.50;99.90;;;;;;5035941;28;20037;-77
2022/07/14 07:47:48;;;;;;;4.95;0.80;;;18.40;99.90;;;;;;5045344;28;20098;-78
2022/07/14 07:50:13;;;;;;;4.65;0.90;;;18.50;99.90;;;;;;5050961;28;20036;-78
2022/07/14 07:52:39;;;;;;;4.85;0.60;;;18.60;99.90;;;;;;5037590;28;20045;-78
2022/07/14 07:55:10;;;;;;;3.60;0.75;;;18.80;99.90;;;;;;5026186;28;20056;-77
2022/07/14 07:57:37;;;;;;;4.18;1.05;;;18.50;99.90;;;;;;5040833;28;20449;-77
2022/07/14 08:00:05;;;;;;;3.30;0.77;;;18.60;99.90;;;;;;5039635;28;20398;-77
2022/07/14 08:02:30;;;;;;;3.30;0.80;;;18.40;99.90;;;;;;5042545;28;20033;-77
2022/07/14 08:04:56;;;;;;;5.82;0.85;;;18.40;99.90;;;;;;5042723;28;20143;-78
2022/07/14 08:07:22;;;;;;;3.55;0.57;;;18.70;99.90;;;;;;5042826;28;20088;-77
2022/07/14 08:09:48;;;;;;;9.77;0.90;;;18.90;99.90;;;;;;5029395;28;20595;-77
2022/07/14 08:12:14;;;;;;;3.95;0.73;;;18.90;99.90;;;;;;5050227;28;20036;-78
2022/07/14 08:14:49;;;;;;;4.80;0.70;;;19.00;99.90;;;;;;5046006;28;20438;-78
2022/07/14 08:17:16;;;;;;;2.80;0.75;;;19.30;99.90;;;;;;5043953;28;20044;-78
2022/07/14 08:19:42;;;;;;;4.28;0.60;;;19.20;99.90;;;;;;5046738;28;20061;-79
2022/07/14 08:22:07;;;;;;;3.05;0.63;;;19.00;99.90;;;;;;5050393;28;20123;-78
2022/07/14 08:24:33;;;;;;;5.85;0.70;;;18.80;99.90;;;;;;5035633;28;20041;-78
2022/07/14 08:26:59;;;;;;;3.50;0.70;;;18.90;99.90;;;;;;5039180;28;20041;-78
2022/07/14 08:29:24;;;;;;;4.43;0.70;;;19.30;99.90;;;;;;5034134;28;20040;-78
2022/07/14 08:31:50;;;;;;;3.65;0.80;;;19.80;99.90;;;;;;5040016;28;20099;-78
2022/07/14 08:34:16;;;;;;;4.88;1.00;;;20.10;99.90;;;;;;5045496;28;20098;-78
2022/07/14 08:36:41;;;;;;;2.90;0.60;;;20.10;99.90;;;;;;5046402;28;20135;-78
2022/07/14 08:39:08;;;;;;;2.08;0.50;;;20.00;99.90;;;;;;5047053;28;20122;-77
2022/07/14 08:41:35;;;;;;;5.38;0.70;;;19.70;99.90;;;;;;5046831;28;20116;-78
2022/07/14 08:44:01;;;;;;;4.10;0.70;;;19.60;99.90;;;;;;5043645;28;20050;-78
2022/07/14 08:46:27;;;;;;;2.22;0.55;;;19.70;99.90;;;;;;5043933;28;20066;-78
2022/07/14 08:48:54;;;;;;;3.08;0.57;;;20.00;99.90;;;;;;5045682;28;20068;-78
2022/07/14 08:51:20;;;;;;;5.07;0.70;;;20.10;99.90;;;;;;5029735;28;20029;-78
2022/07/14 08:53:46;;;;;;;3.53;0.85;;;20.20;99.90;;;;;;5028336;28;20033;-78
2022/07/14 08:56:12;;;;;;;2.83;0.55;;;20.30;99.90;;;;;;5043539;28;20065;-78
2022/07/14 08:58:40;;;;;;;4.82;0.75;;;20.30;99.90;;;;;;5046662;28;20503;-79
2022/07/14 09:01:05;;;;;;;3.42;0.90;;;20.30;99.90;;;;;;5027766;28;20037;-78
2022/07/14 09:03:31;;;;;;;4.47;1.05;;;20.10;99.90;;;;;;5042787;28;20096;-78
2022/07/14 09:05:57;;;;;;;4.57;0.63;;;20.10;99.90;;;;;;5025186;28;20629;-79
2022/07/14 09:08:23;;;;;;;3.83;0.70;;;19.60;99.90;;;;;;5042221;28;20077;-79
2022/07/14 09:10:48;;;;;;;2.35;0.60;;;19.50;99.90;;;;;;5044870;28;20104;-79
2022/07/14 09:13:17;;;;;;;6.10;1.02;;;19.60;99.90;;;;;;5044510;28;20044;-79
2022/07/14 09:15:46;;;;;;;6.13;0.80;;;20.00;99.90;;;;;;5045735;28;20033;-78
2022/07/14 09:18:26;;;;;;;2.83;0.68;;;20.20;99.90;;;;;;5047739;28;20041;-79
2022/07/14 09:20:54;;;;;;;3.67;0.80;;;20.10;99.90;;;;;;5046409;28;20568;-79
2022/07/14 09:23:32;;;;;;;5.35;0.85;;;19.90;99.90;;;;;;5046143;28;20032;-78
2022/07/14 09:26:11;;;;;;;2.30;0.70;;;19.70;99.90;;;;;;5027281;28;20037;-79
2022/07/14 09:28:41;;;;;;;3.72;0.75;;;19.60;99.90;;;;;;5027526;28;20037;-79
2022/07/14 09:31:29;;;;;;;4.70;0.80;;;19.40;99.90;;;;;;5047884;28;20082;-79
2022/07/14 09:33:57;;;;;;;5.68;0.95;;;19.40;99.90;;;;;;5042951;28;20040;-78
2022/07/14 09:36:35;;;;;;;2.17;0.70;;;19.50;99.90;;;;;;5021066;28;20049;-79
2022/07/14 09:39:04;;;;;;;3.92;0.50;;;19.50;99.90;;;;;;5045444;28;20114;-78
2022/07/14 09:41:33;;;;;;;2.85;0.70;;;19.70;99.90;;;;;;5045066;28;20051;-78
2022/07/14 09:44:05;;;;;;;3.00;0.65;;;20.00;99.90;;;;;;5045085;28;20452;-80
2022/07/14 09:46:44;;;;;;;4.22;0.70;;;20.10;99.90;;;;;;5045502;28;20124;-79
2022/07/14 09:49:11;;;;;;;3.92;0.85;;;20.10;99.90;;;;;;5044627;28;20051;-79
2022/07/14 09:51:55;;;;;;;3.38;0.90;;;20.30;99.90;;;;;;5044010;28;20375;-78
2022/07/14 09:54:41;;;;;;;4.68;1.25;;;20.20;99.90;;;;;;5039815;28;20114;-79
2022/07/14 09:57:08;;;;;;;2.55;0.80;;;20.40;99.90;;;;;;5037900;28;20507;-79
2022/07/14 09:59:48;;;;;;;3.67;0.70;;;20.50;99.90;;;;;;5036229;28;20575;-79
2022/07/14 10:02:21;;;;;;;2.35;0.70;;;20.50;99.90;;;;;;5036129;28;20045;-79
2022/07/14 10:04:48;;;;;;;4.85;1.00;;;20.60;99.90;;;;;;5035096;28;20042;-79
2022/07/14 10:07:15;;;;;;;3.58;0.70;;;20.50;99.90;;;;;;5035618;28;20461;-79
2022/07/14 10:10:02;;;;;;;3.85;0.80;;;20.70;99.90;;;;;;5042518;28;20087;-79
2022/07/14 10:12:29;;;;;;;3.53;0.75;;;20.70;99.90;;;;;;5059661;28;20064;-79
2022/07/14 10:14:59;;;;;;;3.03;0.70;;;20.90;99.90;;;;;;5045950;28;20095;-80
2022/07/14 10:17:28;;;;;;;2.90;0.70;;;20.90;99.90;;;;;;5058008;28;20037;-80
2022/07/14 10:19:54;;;;;;;1.55;0.52;;;20.80;99.90;;;;;;5046319;28;20040;-80
2022/07/14 10:22:20;;;;;;;2.75;0.60;;;20.70;99.90;;;;;;5045421;28;20049;-80
2022/07/14 10:24:47;;;;;;;3.90;0.68;;;20.70;99.90;;;;;;5045949;28;20507;-79
2022/07/14 10:27:14;;;;;;;4.35;0.85;;;20.50;99.90;;;;;;5044663;28;20071;-80
2022/07/14 10:29:40;;;;;;;3.55;0.65;;;20.40;99.90;;;;;;5045024;28;20044;-79
2022/07/14 10:32:29;;;;;;;3.35;0.70;;;20.40;99.90;;;;;;5042546;28;20135;-79
2022/07/14 10:35:20;;;;;;;2.97;0.60;;;20.50;99.90;;;;;;5043910;28;20045;-79
2022/07/14 10:38:30;;;;;;;2.45;0.60;;;20.60;99.90;;;;;;5055217;28;20507;-79
2022/07/14 10:41:08;;;;;;;2.22;0.85;;;20.90;99.90;;;;;;5066341;28;20044;-80
2022/07/14 10:44:01;;;;;;;2.83;0.60;;;21.00;99.90;;;;;;5046275;28;20041;-80
2022/07/14 10:46:34;;;;;;;4.45;0.98;;;21.30;99.90;;;;;;5025910;28;20376;-81
2022/07/14 10:49:01;;;;;;;2.65;0.70;;;21.10;99.90;;;;;;5045533;28;20033;-80
2022/07/14 10:51:28;;;;;;;2.95;0.55;;;21.00;99.90;;;;;;5047763;28;20041;-80
2022/07/14 10:54:01;;;;;;;5.03;0.70;;;20.80;99.90;;;;;;5026469;28;20041;-79
2022/07/14 10:56:28;;;;;;;2.77;0.70;;;20.60;99.90;;;;;;5030102;28;20438;-79
2022/07/14 10:59:29;;;;;;;5.10;0.82;;;20.50;99.90;;;;;;5047288;28;20032;-79
2022/07/14 11:02:13;;;;;;;3.67;0.77;;;20.20;99.90;;;;;;5033480;28;20045;-79
2022/07/14 11:07:40;;;;;;;1.98;0.60;;;20.10;99.90;;;;;;5048186;28;20040;-80
2022/07/14 11:10:26;;;;;;;5.85;0.93;;;20.10;99.90;;;;;;5043016;28;20060;-79
2022/07/14 11:13:03;;;;;;;4.20;0.93;;;20.10;99.90;;;;;;5046222;28;20041;-80
2022/07/14 11:15:35;;;;;;;3.75;0.60;;;20.10;99.90;;;;;;5045943;28;20033;-80
2022/07/14 11:18:24;;;;;;;4.20;0.77;;;20.10;99.90;;;;;;5028791;28;20025;-79
2022/07/14 11:20:55;;;;;;;7.93;0.77;;;20.10;99.90;;;;;;5042769;28;20049;-80
2022/07/14 11:23:47;;;;;;;4.47;0.70;;;20.10;99.90;;;;;;5046196;28;20033;-80
2022/07/14 11:26:31;;;;;;;3.75;0.70;;;20.20;99.90;;;;;;5049260;28;20056;-79
2022/07/14 11:28:58;;;;;;;1.90;0.50;;;20.10;99.90;;;;;;5044882;28;20043;-79
2022/07/14 11:31:24;;;;;;;4.30;0.85;;;20.20;99.90;;;;;;5034241;28;20048;-80
2022/07/14 11:36:43;;;;;;;4.22;0.77;;;20.70;99.90;;;;;;5047832;28;20053;-80
2022/07/14 11:39:15;;;;;;;3.08;0.70;;;21.20;99.90;;;;;;5047083;28;20037;-82
2022/07/14 11:41:46;;;;;;;4.28;0.95;;;21.40;99.90;;;;;;5030038;28;20048;-82
2022/07/14 11:44:38;;;;;;;4.78;0.93;;;21.80;99.90;;;;;;5048246;28;20086;-81
2022/07/14 11:47:06;;;;;;;2.83;0.60;;;22.30;99.90;;;;;;5044529;28;20045;-83
2022/07/14 11:49:33;;;;;;;2.47;0.50;;;22.70;99.60;;;;;;5047397;28;20033;-82
2022/07/14 11:52:00;;;;;;;4.65;0.65;;;23.00;99.10;;;;;;5046243;28;20045;-81
2022/07/14 11:54:27;;;;;;;4.68;0.85;;;23.00;98.70;;;;;;5049201;28;20407;-83
2022/07/14 11:57:05;;;;;;;2.22;0.63;;;22.90;98.30;;;;;;5052598;28;20443;-81
2022/07/14 11:59:32;;;;;;;2.95;0.80;;;22.50;97.20;;;;;;5050310;28;20435;-81
2022/07/14 12:02:15;;;;;;;4.18;0.80;;;22.40;97.40;;;;;;5056497;28;20041;-82
2022/07/14 12:04:58;;;;;;;4.05;0.80;;;22.20;97.90;;;;;;5050490;28;20485;-82
2022/07/14 12:07:45;;;;;;;2.30;0.80;;;22.00;97.50;;;;;;5050187;28;20044;-84
2022/07/14 12:10:12;;;;;;;4.45;0.75;;;21.90;98.10;;;;;;5031498;28;20037;-81
2022/07/14 12:12:44;;;;;;;5.75;1.00;;;21.70;98.10;;;;;;5051568;28;20487;-81
2022/07/14 12:15:11;;;;;;;6.35;1.10;;;21.70;98.00;;;;;;5048693;28;20464;-81
2022/07/14 12:17:48;;;;;;;5.90;1.25;;;21.90;98.70;;;;;;5051610;28;20033;-84
2022/07/14 12:20:14;;;;;;;2.50;0.52;;;22.10;98.30;;;;;;5053883;28;20055;-83
2022/07/14 12:22:44;;;;;;;3.55;0.80;;;22.40;98.60;;;;;;5050379;28;20048;-82
2022/07/14 12:25:33;;;;;;;6.78;1.05;;;22.80;98.00;;;;;;5046996;28;20380;-82
2022/07/14 12:28:04;;;;;;;3.90;0.80;;;23.30;98.30;;;;;;5050955;28;20059;-83
2022/07/14 12:30:47;;;;;;;7.47;0.80;;;23.10;97.90;;;;;;5048938;28;20047;-83
2022/07/14 12:33:15;;;;;;;3.85;0.73;;;22.70;97.60;;;;;;5048211;28;20033;-82
2022/07/14 12:35:43;;;;;;;3.28;0.90;;;22.60;97.80;;;;;;5033994;28;20051;-83
2022/07/14 12:38:11;;;;;;;5.90;1.45;;;22.00;97.80;;;;;;5047893;28;20085;-82
2022/07/14 12:40:38;;;;;;;4.65;0.82;;;21.70;98.20;;;;;;5049061;28;20041;-81
2022/07/14 12:43:04;;;;;;;3.00;0.75;;;21.40;98.60;;;;;;5051525;28;20047;-81
2022/07/14 12:45:30;;;;;;;5.13;0.90;;;21.30;98.90;;;;;;5050571;28;20040;-81
2022/07/14 12:48:00;;;;;;;4.38;0.85;;;21.10;99.30;;;;;;5052439;28;20048;-81
2022/07/14 12:50:27;;;;;;;5.57;0.88;;;21.10;99.50;;;;;;5052683;28;20037;-81
2022/07/14 12:52:54;;;;;;;4.63;0.98;;;21.00;99.70;;;;;;5049818;28;20041;-81
2022/07/14 12:55:38;;;;;;;5.18;0.80;;;20.80;99.50;;;;;;5046532;28;20037;-81
2022/07/14 12:58:08;;;;;;;;;;;20.70;99.60;;;;;;5048143;28;20059;-81
2022/07/14 13:00:35;;;;;;;3.80;0.90;;;20.50;99.70;;;;;;5032477;28;19986;-81
2022/07/14 13:03:13;;;;;;;3.85;0.80;;;20.40;99.90;;;;;;5031433;28;20045;-82
2022/07/14 13:05:45;;;;;;;4.35;0.93;;;20.40;99.90;;;;;;5046483;28;20124;-80
2022/07/14 13:08:36;;;;;;;4.40;0.80;;;20.50;99.90;;;;;;5061297;28;20045;-81
2022/07/14 13:11:07;;;;;;;4.03;0.70;;;20.50;99.70;;;;;;5047440;28;20513;-81